Time;durP1;ratioP1;P1;durP2;ratioP2;P2;SDS_P1;SDS_P2;PMS_P1;PMS_P2;Temp;Humidity;BMP_temperature;BMP_pressure;BME280_temperature;BME280_humidity;BME280_pressure;Samples;Min_cycle;Max_cycle;Signal;HPM_P1;HPM_P2
2023/06/25 00:01:44;;;;;;;14.47;13.07;;;19.90;99.90;;;;;;5077138;28;20462;-68
2023/06/25 00:04:11;;;;;;;13.90;12.40;;;19.90;99.90;;;;;;5076973;28;20478;-68
2023/06/25 00:06:38;;;;;;;14.10;12.70;;;19.90;99.90;;;;;;5076537;28;20503;-68
2023/06/25 00:09:05;;;;;;;13.53;12.13;;;19.90;99.90;;;;;;5076782;28;20454;-68
2023/06/25 00:11:32;;;;;;;13.80;12.37;;;19.90;99.90;;;;;;5076822;28;20465;-68
2023/06/25 00:13:59;;;;;;;16.80;11.30;;;19.80;99.90;;;;;;5076667;28;20465;-68
2023/06/25 00:16:29;;;;;;;12.47;11.20;;;19.80;99.90;;;;;;5076287;28;20464;-68
2023/06/25 00:18:57;;;;;;;13.60;11.60;;;19.80;99.90;;;;;;5076939;28;20461;-68
2023/06/25 00:21:24;;;;;;;12.83;11.20;;;19.80;99.90;;;;;;5076891;28;20549;-68
2023/06/25 00:23:51;;;;;;;12.20;10.80;;;19.90;99.90;;;;;;5076513;28;20454;-68
2023/06/25 00:26:18;;;;;;;12.10;10.83;;;19.90;99.90;;;;;;5076608;28;20458;-68
2023/06/25 00:28:45;;;;;;;13.10;11.70;;;19.90;99.90;;;;;;5076361;28;20454;-68
2023/06/25 00:31:13;;;;;;;13.27;11.07;;;19.90;99.90;;;;;;5075864;28;20914;-68
2023/06/25 00:33:43;;;;;;;11.60;10.40;;;20.00;99.90;;;;;;5076211;28;20477;-68
2023/06/25 00:36:11;;;;;;;12.50;11.20;;;20.00;99.90;;;;;;5076252;28;20458;-68
2023/06/25 00:38:39;;;;;;;11.53;10.43;;;20.00;99.90;;;;;;5075794;28;20496;-68
2023/06/25 00:41:08;;;;;;;11.80;10.60;;;20.00;99.90;;;;;;5075952;28;20454;-68
2023/06/25 00:43:35;;;;;;;11.40;10.27;;;20.00;99.90;;;;;;5075659;28;20465;-68
2023/06/25 00:46:05;;;;;;;11.57;10.37;;;20.00;99.90;;;;;;5075905;28;20492;-68
2023/06/25 00:48:32;;;;;;;11.80;10.60;;;20.00;99.90;;;;;;5076245;28;20797;-68
2023/06/25 00:51:01;;;;;;;11.00;9.90;;;20.00;99.90;;;;;;5076446;28;20465;-68
2023/06/25 00:53:34;;;;;;;10.63;9.50;;;20.10;99.90;;;;;;5075834;28;20938;-68
2023/06/25 00:56:01;;;;;;;11.30;10.10;;;20.10;99.90;;;;;;5075892;28;20450;-68
2023/06/25 00:58:28;;;;;;;11.30;10.20;;;20.10;99.90;;;;;;5075439;28;20454;-68
2023/06/25 01:00:59;;;;;;;13.33;10.00;;;20.20;99.90;;;;;;5076090;28;20468;-68
2023/06/25 01:03:31;;;;;;;11.10;10.10;;;20.20;99.90;;;;;;5075657;28;20439;-68
2023/06/25 01:06:04;;;;;;;12.63;9.47;;;20.30;99.90;;;;;;5076215;28;20466;-69
2023/06/25 01:08:35;;;;;;;11.67;10.57;;;20.30;99.90;;;;;;5075241;28;20482;-68
2023/06/25 01:11:04;;;;;;;11.60;10.33;;;20.30;99.90;;;;;;5075502;28;20471;-68
2023/06/25 01:13:31;;;;;;;11.40;10.23;;;20.30;99.90;;;;;;5075143;28;20468;-68
2023/06/25 01:15:58;;;;;;;10.70;9.60;;;20.30;99.90;;;;;;5075409;28;20451;-68
2023/06/25 01:18:25;;;;;;;10.53;9.13;;;20.30;99.90;;;;;;5075318;28;20464;-68
2023/06/25 01:20:53;;;;;;;15.83;10.00;;;20.30;99.90;;;;;;5074832;28;20458;-68
2023/06/25 01:23:22;;;;;;;10.80;9.67;;;20.40;99.90;;;;;;5075414;28;20832;-68
2023/06/25 01:25:49;;;;;;;10.30;9.30;;;20.40;99.90;;;;;;5074754;28;20478;-68
2023/06/25 01:28:19;;;;;;;9.87;8.83;;;20.30;99.90;;;;;;5075294;28;20798;-68
2023/06/25 01:30:48;;;;;;;10.30;9.20;;;20.30;99.90;;;;;;5075266;28;20783;-66
2023/06/25 01:33:15;;;;;;;11.13;9.47;;;20.30;99.90;;;;;;5075403;28;20451;-68
2023/06/25 01:35:42;;;;;;;13.00;10.67;;;20.30;99.90;;;;;;5075312;28;20519;-67
2023/06/25 01:38:10;;;;;;;11.53;10.43;;;20.30;99.90;;;;;;5074893;28;20482;-68
2023/06/25 01:40:38;;;;;;;9.87;8.87;;;20.30;99.90;;;;;;5075177;28;20553;-67
2023/06/25 01:43:05;;;;;;;12.00;9.47;;;20.30;99.90;;;;;;5075238;28;20845;-68
2023/06/25 01:45:32;;;;;;;9.83;8.73;;;20.30;99.90;;;;;;5074904;28;20568;-68
2023/06/25 01:47:59;;;;;;;10.80;9.70;;;20.30;99.90;;;;;;5074957;28;20465;-67
2023/06/25 01:50:26;;;;;;;10.10;9.10;;;20.40;99.90;;;;;;5074354;28;20457;-68
2023/06/25 01:52:53;;;;;;;11.83;9.10;;;20.40;99.90;;;;;;5074610;28;20553;-68
2023/06/25 01:55:20;;;;;;;10.87;9.50;;;20.40;99.90;;;;;;5073138;28;20927;-67
2023/06/25 01:57:48;;;;;;;10.50;9.40;;;20.40;99.90;;;;;;5074051;28;20554;-67
2023/06/25 02:00:15;;;;;;;9.47;8.57;;;20.40;99.90;;;;;;5074680;28;20465;-68
2023/06/25 02:02:43;;;;;;;10.60;8.50;;;20.30;99.90;;;;;;5074542;28;20465;-68
2023/06/25 02:05:10;;;;;;;9.20;8.20;;;20.30;99.90;;;;;;5074176;28;20482;-67
2023/06/25 02:07:37;;;;;;;10.60;8.17;;;20.20;99.90;;;;;;5074335;28;20933;-68
2023/06/25 02:10:04;;;;;;;9.10;8.23;;;20.30;99.90;;;;;;5074666;28;20473;-67
2023/06/25 02:12:31;;;;;;;8.53;7.73;;;20.30;99.90;;;;;;5074202;28;20523;-67
2023/06/25 02:14:59;;;;;;;8.60;7.80;;;20.30;99.90;;;;;;5074217;28;20485;-67
2023/06/25 02:17:29;;;;;;;8.40;7.60;;;20.30;99.90;;;;;;5074100;28;20458;-67
2023/06/25 02:19:59;;;;;;;9.50;8.60;;;20.20;99.90;;;;;;5074521;28;20549;-67
2023/06/25 02:22:26;;;;;;;8.87;7.97;;;20.30;99.90;;;;;;5074563;28;20462;-67
2023/06/25 02:24:52;;;;;;;9.37;8.20;;;20.30;99.90;;;;;;5074082;28;20474;-67
2023/06/25 02:27:20;;;;;;;9.30;8.13;;;20.30;99.90;;;;;;5074430;28;20485;-67
2023/06/25 02:29:47;;;;;;;9.23;8.23;;;20.30;99.90;;;;;;5074418;28;20462;-67
2023/06/25 02:32:17;;;;;;;8.87;7.97;;;20.30;99.90;;;;;;5074118;28;20830;-68
2023/06/25 02:34:44;;;;;;;11.53;8.50;;;20.30;99.90;;;;;;5074377;28;20525;-68
2023/06/25 02:37:14;;;;;;;9.23;8.33;;;20.30;99.90;;;;;;5073986;28;20865;-68
2023/06/25 02:39:41;;;;;;;8.57;7.67;;;20.30;99.90;;;;;;5074429;28;20450;-68
2023/06/25 02:42:08;;;;;;;9.80;8.73;;;20.30;99.90;;;;;;5074263;28;20464;-68
2023/06/25 02:44:35;;;;;;;8.97;8.17;;;20.30;99.90;;;;;;5074500;28;20458;-68
2023/06/25 02:47:03;;;;;;;10.00;9.00;;;20.30;99.90;;;;;;5075470;28;20526;-68
2023/06/25 02:49:31;;;;;;;10.50;8.40;;;20.30;99.90;;;;;;5075620;28;20454;-68
2023/06/25 02:51:58;;;;;;;10.83;9.03;;;20.30;99.90;;;;;;5075034;28;20791;-68
2023/06/25 02:54:25;;;;;;;10.27;9.27;;;20.30;99.90;;;;;;5075094;28;20541;-68
2023/06/25 02:56:52;;;;;;;9.63;7.80;;;20.30;99.90;;;;;;5075318;28;20480;-68
2023/06/25 02:59:19;;;;;;;9.43;8.43;;;20.30;99.90;;;;;;5075053;28;20464;-68
2023/06/25 03:01:49;;;;;;;9.83;8.90;;;20.30;99.90;;;;;;5075518;28;20930;-68
2023/06/25 03:04:16;;;;;;;11.03;9.57;;;20.30;99.90;;;;;;5075188;28;20525;-68
2023/06/25 03:06:44;;;;;;;9.53;8.63;;;20.30;99.90;;;;;;5077511;28;20545;-68
2023/06/25 03:09:11;;;;;;;12.57;8.80;;;20.30;99.90;;;;;;5078567;28;20464;-68
2023/06/25 03:11:38;;;;;;;9.80;8.80;;;20.30;99.90;;;;;;5079094;28;20446;-68
2023/06/25 03:14:05;;;;;;;10.60;9.50;;;20.30;99.90;;;;;;5080093;28;20453;-68
2023/06/25 03:16:32;;;;;;;11.00;8.20;;;20.30;99.90;;;;;;5080096;28;20482;-68
2023/06/25 03:19:01;;;;;;;9.70;8.80;;;20.40;99.90;;;;;;5080293;28;20897;-68
2023/06/25 03:21:28;;;;;;;10.33;9.33;;;20.30;99.90;;;;;;5080368;28;20467;-68
2023/06/25 03:23:56;;;;;;;11.73;9.70;;;20.30;99.90;;;;;;5080787;28;20469;-68
2023/06/25 03:26:26;;;;;;;10.23;9.23;;;20.30;99.90;;;;;;5081114;28;20478;-68
2023/06/25 03:28:53;;;;;;;10.50;9.27;;;20.40;99.90;;;;;;5081307;28;20541;-68
2023/06/25 03:31:20;;;;;;;12.07;9.97;;;20.40;99.90;;;;;;5080730;28;20458;-68
2023/06/25 03:33:47;;;;;;;9.93;8.80;;;20.40;99.90;;;;;;5080513;28;20453;-69
2023/06/25 03:36:14;;;;;;;10.90;9.80;;;20.40;99.90;;;;;;5080714;28;20454;-69
2023/06/25 03:38:41;;;;;;;10.10;9.00;;;20.40;99.90;;;;;;5080261;28;20478;-68
2023/06/25 03:41:09;;;;;;;12.40;10.53;;;20.40;99.90;;;;;;5080849;28;20757;-68
2023/06/25 03:43:36;;;;;;;10.33;9.33;;;20.40;99.90;;;;;;5080686;28;20533;-68
2023/06/25 03:46:05;;;;;;;10.67;9.57;;;20.40;99.90;;;;;;5079825;28;20478;-68
2023/06/25 03:48:32;;;;;;;12.13;10.10;;;20.40;99.90;;;;;;5079921;28;20936;-68
2023/06/25 03:50:59;;;;;;;10.97;9.77;;;20.50;99.90;;;;;;5080009;28;20945;-68
2023/06/25 03:53:27;;;;;;;12.50;9.30;;;20.40;99.90;;;;;;5079191;28;20537;-68
2023/06/25 03:55:54;;;;;;;12.10;9.40;;;20.50;99.90;;;;;;5079115;28;20518;-68
2023/06/25 03:58:22;;;;;;;12.07;9.90;;;20.50;99.90;;;;;;5079589;28;20728;-68
2023/06/25 04:00:48;;;;;;;11.60;9.60;;;20.50;99.90;;;;;;5079437;28;20468;-68
2023/06/25 04:03:18;;;;;;;10.20;9.17;;;20.50;99.90;;;;;;5078049;28;20514;-68
2023/06/25 04:05:45;;;;;;;10.70;8.73;;;20.50;99.90;;;;;;5078087;28;20790;-68
2023/06/25 04:08:12;;;;;;;10.33;9.17;;;20.50;99.90;;;;;;5077863;28;20466;-68
2023/06/25 04:10:40;;;;;;;10.93;9.63;;;20.50;99.90;;;;;;5077600;28;20454;-68
2023/06/25 04:13:07;;;;;;;9.50;8.27;;;20.50;99.90;;;;;;5077758;28;20458;-68
2023/06/25 04:15:35;;;;;;;10.73;9.73;;;20.50;99.90;;;;;;5077228;28;20451;-68
2023/06/25 04:18:02;;;;;;;10.90;9.77;;;20.50;99.90;;;;;;5076509;28;20454;-68
2023/06/25 04:20:29;;;;;;;10.73;9.63;;;20.50;99.90;;;;;;5077834;28;20966;-68
2023/06/25 04:22:56;;;;;;;10.10;9.10;;;20.60;99.90;;;;;;5077381;28;20517;-68
2023/06/25 04:25:23;;;;;;;10.67;9.50;;;20.60;99.90;;;;;;5076652;28;20482;-67
2023/06/25 04:27:50;;;;;;;10.70;9.60;;;20.60;99.90;;;;;;5077100;28;20495;-68
2023/06/25 04:30:17;;;;;;;11.07;9.63;;;20.60;99.90;;;;;;5078235;28;20454;-67
2023/06/25 04:32:49;;;;;;;11.63;10.20;;;20.50;99.90;;;;;;5077722;28;20783;-67
2023/06/25 04:35:16;;;;;;;10.37;9.40;;;20.50;99.90;;;;;;5078396;28;20771;-67
2023/06/25 04:37:43;;;;;;;11.90;10.43;;;20.50;99.90;;;;;;5076323;28;20495;-68
2023/06/25 04:40:11;;;;;;;10.50;9.47;;;20.50;99.90;;;;;;5076717;28;20553;-67
2023/06/25 04:42:38;;;;;;;11.07;9.87;;;20.50;99.90;;;;;;5076528;28;20458;-67
2023/06/25 04:45:06;;;;;;;11.43;10.33;;;20.50;99.90;;;;;;5076542;28;20450;-68
2023/06/25 04:47:33;;;;;;;11.47;10.20;;;20.50;99.90;;;;;;5076611;28;20450;-68
2023/06/25 04:50:01;;;;;;;12.20;10.97;;;20.50;99.90;;;;;;5076936;28;20554;-68
2023/06/25 04:52:28;;;;;;;11.73;9.40;;;20.50;99.90;;;;;;5076185;28;20465;-68
2023/06/25 04:54:55;;;;;;;13.17;10.57;;;20.50;99.90;;;;;;5076643;28;20544;-68
2023/06/25 04:57:22;;;;;;;12.13;10.80;;;20.50;99.90;;;;;;5075948;28;20864;-67
2023/06/25 04:59:49;;;;;;;12.13;10.93;;;20.50;99.90;;;;;;5076804;28;20494;-68
2023/06/25 05:02:16;;;;;;;11.47;9.73;;;20.50;99.90;;;;;;5076181;28;20454;-68
2023/06/25 05:04:43;;;;;;;10.80;9.80;;;20.60;99.90;;;;;;5076756;28;20466;-68
2023/06/25 05:07:11;;;;;;;10.90;9.80;;;20.60;99.90;;;;;;5076837;28;20482;-68
2023/06/25 05:09:38;;;;;;;11.03;9.67;;;20.60;99.90;;;;;;5077185;28;20771;-69
2023/06/25 05:12:06;;;;;;;10.53;9.53;;;20.60;99.90;;;;;;5076474;28;20549;-69
2023/06/25 05:14:33;;;;;;;11.00;9.30;;;20.60;99.90;;;;;;5077698;28;20457;-69
2023/06/25 05:17:00;;;;;;;13.63;8.97;;;20.70;99.90;;;;;;5078684;28;20906;-69
2023/06/25 05:19:26;;;;;;;10.17;8.90;;;20.70;99.90;;;;;;5079924;28;20557;-69
2023/06/25 05:21:53;;;;;;;10.83;8.63;;;20.80;99.90;;;;;;5079343;28;20517;-68
2023/06/25 05:24:21;;;;;;;9.80;8.90;;;20.80;99.90;;;;;;5078667;28;20454;-68
2023/06/25 05:26:48;;;;;;;9.27;8.37;;;20.80;99.90;;;;;;5077412;28;20478;-68
2023/06/25 05:29:15;;;;;;;10.30;8.90;;;20.80;99.90;;;;;;5077116;28;20846;-69
2023/06/25 05:31:42;;;;;;;10.10;9.10;;;20.90;99.90;;;;;;5078237;28;20462;-69
2023/06/25 05:34:09;;;;;;;15.77;9.07;;;20.90;99.90;;;;;;5077059;28;20564;-69
2023/06/25 05:36:36;;;;;;;9.40;8.50;;;20.90;99.90;;;;;;5076169;28;20526;-69
2023/06/25 05:39:02;;;;;;;10.50;9.10;;;21.00;99.90;;;;;;5076066;28;20771;-68
2023/06/25 05:41:31;;;;;;;9.23;8.33;;;20.90;99.90;;;;;;5075485;28;20458;-69
2023/06/25 05:43:58;;;;;;;8.90;8.00;;;21.00;99.90;;;;;;5075151;28;20467;-68
2023/06/25 05:46:24;;;;;;;9.03;8.23;;;21.00;99.90;;;;;;5074734;28;20478;-69
2023/06/25 05:48:51;;;;;;;11.67;7.73;;;21.00;99.90;;;;;;5075052;28;20545;-68
2023/06/25 05:51:18;;;;;;;8.87;7.97;;;21.00;99.90;;;;;;5074840;28;20929;-68
2023/06/25 05:53:45;;;;;;;8.80;7.90;;;21.10;99.90;;;;;;5075008;28;20844;-69
2023/06/25 05:56:12;;;;;;;8.00;7.30;;;21.10;99.90;;;;;;5074591;28;20986;-69
2023/06/25 05:58:40;;;;;;;10.17;7.53;;;21.10;99.90;;;;;;5075137;28;20454;-69
2023/06/25 06:01:07;;;;;;;9.53;8.43;;;21.20;99.90;;;;;;5075880;28;20488;-68
2023/06/25 06:03:34;;;;;;;12.10;7.90;;;21.20;99.90;;;;;;5076370;28;20454;-67
2023/06/25 06:06:02;;;;;;;10.20;7.80;;;21.30;99.90;;;;;;5076702;28;20488;-68
2023/06/25 06:08:28;;;;;;;9.00;8.07;;;21.30;99.90;;;;;;5076541;28;20454;-68
2023/06/25 06:10:55;;;;;;;8.80;7.90;;;21.40;99.90;;;;;;5076724;28;20458;-68
2023/06/25 06:13:22;;;;;;;10.37;8.30;;;21.50;99.90;;;;;;5076898;28;20458;-68
2023/06/25 06:15:50;;;;;;;9.53;8.53;;;21.50;99.90;;;;;;5076427;28;20536;-68
2023/06/25 06:18:17;;;;;;;10.20;7.43;;;21.60;99.90;;;;;;5076995;28;20537;-68
2023/06/25 06:20:44;;;;;;;9.77;7.90;;;21.70;99.90;;;;;;5077161;28;20504;-68
2023/06/25 06:23:11;;;;;;;7.73;7.03;;;21.80;99.90;;;;;;5077980;28;20522;-67
2023/06/25 06:25:38;;;;;;;9.43;7.70;;;21.90;99.90;;;;;;5077374;28;20469;-67
2023/06/25 06:28:05;;;;;;;8.60;7.70;;;22.00;99.90;;;;;;5077153;28;20481;-68
2023/06/25 06:30:31;;;;;;;8.97;7.20;;;22.00;99.90;;;;;;5076727;28;20464;-69
2023/06/25 06:33:00;;;;;;;7.70;6.93;;;22.10;99.90;;;;;;5076593;28;20458;-67
2023/06/25 06:35:30;;;;;;;7.00;6.30;;;22.20;99.90;;;;;;5077244;28;20532;-68
2023/06/25 06:37:56;;;;;;;10.20;7.00;;;22.20;99.90;;;;;;5075903;28;20484;-67
2023/06/25 06:40:23;;;;;;;7.80;7.10;;;22.20;99.90;;;;;;5075968;28;20472;-68
2023/06/25 06:42:50;;;;;;;9.07;6.30;;;22.20;99.90;;;;;;5079906;28;20545;-67
2023/06/25 06:45:17;;;;;;;7.03;6.27;;;22.20;99.90;;;;;;5080215;28;20464;-69
2023/06/25 06:47:45;;;;;;;7.10;6.40;;;22.20;99.90;;;;;;5079623;28;20863;-70
2023/06/25 06:50:13;;;;;;;7.93;6.70;;;22.20;99.90;;;;;;5080690;28;20482;-69
2023/06/25 06:52:42;;;;;;;7.67;6.93;;;22.20;99.90;;;;;;5079560;28;20537;-69
2023/06/25 06:55:11;;;;;;;9.20;8.27;;;22.30;99.90;;;;;;5081817;28;20454;-69
2023/06/25 06:57:38;;;;;;;8.40;7.60;;;22.30;99.90;;;;;;5082549;28;20914;-68
2023/06/25 07:00:06;;;;;;;7.87;7.07;;;22.30;99.90;;;;;;5079373;28;20450;-68
2023/06/25 07:02:33;;;;;;;8.47;7.67;;;22.20;99.90;;;;;;5079852;28;20462;-68
2023/06/25 07:05:00;;;;;;;8.20;7.40;;;22.20;99.90;;;;;;5080544;28;20545;-68
2023/06/25 07:07:28;;;;;;;9.17;7.80;;;22.30;99.90;;;;;;5080644;28;20509;-68
2023/06/25 07:09:58;;;;;;;9.00;7.43;;;22.30;99.90;;;;;;5080105;28;20461;-68
2023/06/25 07:12:24;;;;;;;8.60;7.80;;;22.30;99.90;;;;;;5079441;28;20460;-69
2023/06/25 07:14:51;;;;;;;10.83;9.73;;;22.40;99.90;;;;;;5079704;28;20553;-69
2023/06/25 07:17:18;;;;;;;8.80;8.00;;;22.40;99.90;;;;;;5080817;28;20454;-69
2023/06/25 07:19:45;;;;;;;8.50;7.47;;;22.50;99.90;;;;;;5081005;28;20797;-69
2023/06/25 07:22:12;;;;;;;8.53;7.50;;;22.50;99.90;;;;;;5080218;28;20485;-69
2023/06/25 07:24:40;;;;;;;8.03;7.20;;;22.50;99.90;;;;;;5081065;28;20636;-69
2023/06/25 07:27:07;;;;;;;7.43;6.73;;;22.60;99.90;;;;;;5080149;28;20520;-69
2023/06/25 07:29:34;;;;;;;8.90;8.10;;;22.70;99.90;;;;;;5082199;28;20732;-69
2023/06/25 07:32:01;;;;;;;9.10;7.70;;;22.70;99.90;;;;;;5080310;28;20458;-69
2023/06/25 07:34:28;;;;;;;8.03;7.23;;;22.80;99.90;;;;;;5080212;28;20497;-69
2023/06/25 07:36:55;;;;;;;8.00;7.30;;;23.00;99.90;;;;;;5079922;28;20474;-69
2023/06/25 07:39:25;;;;;;;9.20;8.27;;;23.10;99.90;;;;;;5080784;28;20454;-69
2023/06/25 07:41:54;;;;;;;8.30;7.50;;;23.20;99.90;;;;;;5080943;28;20438;-69
2023/06/25 07:44:21;;;;;;;8.10;7.30;;;23.30;99.90;;;;;;5081003;28;20545;-68
2023/06/25 07:46:48;;;;;;;9.03;7.07;;;23.30;99.90;;;;;;5080775;28;20538;-69
2023/06/25 07:49:15;;;;;;;7.40;6.80;;;23.40;99.90;;;;;;5080817;28;20540;-69
2023/06/25 07:51:49;;;;;;;8.60;7.17;;;23.50;99.90;;;;;;5080721;28;20819;-68
2023/06/25 07:54:16;;;;;;;7.70;7.10;;;23.60;99.90;;;;;;5079580;28;20880;-68
2023/06/25 07:56:44;;;;;;;8.57;7.73;;;23.70;99.90;;;;;;5080136;28;20450;-68
2023/06/25 07:59:12;;;;;;;8.17;6.93;;;23.70;99.90;;;;;;5080658;28;20489;-67
2023/06/25 08:01:39;;;;;;;7.97;7.17;;;23.70;99.90;;;;;;5081352;28;20538;-68
2023/06/25 08:04:06;;;;;;;9.97;7.60;;;23.80;99.90;;;;;;5080877;28;20907;-68
2023/06/25 08:06:33;;;;;;;8.50;6.33;;;23.90;99.90;;;;;;5079859;28;20882;-68
2023/06/25 08:09:00;;;;;;;7.57;6.83;;;24.00;99.90;;;;;;5080680;28;20453;-68
2023/06/25 08:11:27;;;;;;;7.83;6.93;;;24.00;99.90;;;;;;5078884;28;20465;-68
2023/06/25 08:13:54;;;;;;;7.47;6.77;;;23.90;99.90;;;;;;5079407;28;20530;-68
2023/06/25 08:16:23;;;;;;;7.00;6.40;;;23.90;99.90;;;;;;5081404;28;20532;-68
2023/06/25 08:18:50;;;;;;;7.13;6.50;;;23.90;99.90;;;;;;5081493;28;20459;-68
2023/06/25 08:21:17;;;;;;;8.23;7.07;;;24.00;99.90;;;;;;5080964;28;20469;-68
2023/06/25 08:23:44;;;;;;;7.90;7.20;;;24.10;99.90;;;;;;5078146;28;20544;-68
2023/06/25 08:26:12;;;;;;;8.40;7.00;;;24.10;99.90;;;;;;5078250;28;20790;-68
2023/06/25 08:28:39;;;;;;;16.77;7.30;;;24.00;99.90;;;;;;5079171;28;20454;-68
2023/06/25 08:31:06;;;;;;;8.27;7.47;;;24.10;99.90;;;;;;5079577;28;20553;-68
2023/06/25 08:33:35;;;;;;;8.17;7.50;;;24.10;99.90;;;;;;5078754;28;20461;-68
2023/06/25 08:36:01;;;;;;;7.93;7.23;;;24.30;99.90;;;;;;5078837;28;20944;-68
2023/06/25 08:38:30;;;;;;;7.80;7.07;;;24.30;99.90;;;;;;5078762;28;20556;-68
2023/06/25 08:40:57;;;;;;;8.03;6.87;;;24.40;99.90;;;;;;5078514;28;20458;-68
2023/06/25 08:43:24;;;;;;;7.80;6.80;;;24.40;99.90;;;;;;5079133;28;20907;-68
2023/06/25 08:45:51;;;;;;;7.40;6.80;;;24.50;99.90;;;;;;5077911;28;20913;-68
2023/06/25 08:48:19;;;;;;;8.07;7.33;;;24.60;99.90;;;;;;5079399;28;20577;-68
2023/06/25 08:50:56;;;;;;;8.97;7.80;;;24.80;99.90;;;;;;5077473;28;20573;-68
2023/06/25 08:53:25;;;;;;;12.23;7.20;;;24.80;99.90;;;;;;5076959;28;20453;-68
2023/06/25 08:55:54;;;;;;;7.50;6.80;;;24.70;99.90;;;;;;5078241;28;20561;-68
2023/06/25 08:58:21;;;;;;;9.27;7.40;;;24.70;99.90;;;;;;5078740;28;20478;-68
2023/06/25 09:00:48;;;;;;;8.30;7.43;;;24.70;99.90;;;;;;5077594;28;20469;-68
2023/06/25 09:03:15;;;;;;;8.93;7.37;;;24.80;99.90;;;;;;5076012;28;20465;-68
2023/06/25 09:05:56;;;;;;;7.87;7.20;;;24.80;99.90;;;;;;5076947;28;20458;-68
2023/06/25 09:08:27;;;;;;;7.70;7.00;;;24.80;99.90;;;;;;5077333;28;20466;-69
2023/06/25 09:10:56;;;;;;;7.70;7.10;;;24.90;99.90;;;;;;5076903;28;20557;-68
2023/06/25 09:13:24;;;;;;;7.57;6.80;;;25.00;99.90;;;;;;5078227;28;20533;-68
2023/06/25 09:15:51;;;;;;;8.07;7.03;;;25.10;99.90;;;;;;5077679;28;20462;-68
2023/06/25 09:18:21;;;;;;;8.00;7.20;;;25.30;99.90;;;;;;5076991;28;20538;-68
2023/06/25 09:20:49;;;;;;;7.37;6.77;;;25.30;99.90;;;;;;5077222;28;20894;-68
2023/06/25 09:23:24;;;;;;;7.53;6.93;;;25.30;99.90;;;;;;5077805;28;20454;-68
2023/06/25 09:25:52;;;;;;;7.07;6.47;;;25.40;99.90;;;;;;5077320;28;20468;-68
2023/06/25 09:28:19;;;;;;;8.70;6.77;;;25.40;99.90;;;;;;5078438;28;20504;-68
2023/06/25 09:30:46;;;;;;;7.40;6.70;;;25.50;99.90;;;;;;5076675;28;20482;-68
2023/06/25 09:33:14;;;;;;;7.60;6.93;;;25.60;99.90;;;;;;5075159;28;20790;-68
2023/06/25 09:35:41;;;;;;;7.07;6.37;;;25.30;99.90;;;;;;5074672;28;20922;-68
2023/06/25 09:38:08;;;;;;;7.50;6.80;;;25.20;99.90;;;;;;5075131;28;20482;-69
2023/06/25 09:40:37;;;;;;;7.77;6.87;;;25.20;99.90;;;;;;5076359;28;20458;-69
2023/06/25 09:43:08;;;;;;;7.10;6.40;;;25.30;99.90;;;;;;5076027;28;20791;-69
2023/06/25 09:45:37;;;;;;;7.63;6.83;;;25.40;99.90;;;;;;5075685;28;20497;-69
2023/06/25 09:48:09;;;;;;;7.30;6.60;;;25.60;99.90;;;;;;5074616;28;20502;-68
2023/06/25 09:50:39;;;;;;;7.07;6.47;;;25.60;99.90;;;;;;5074668;28;20772;-69
2023/06/25 09:53:12;;;;;;;6.93;6.33;;;25.30;99.90;;;;;;5074969;28;20447;-68
2023/06/25 09:55:41;;;;;;;6.93;6.23;;;25.10;99.90;;;;;;5075031;28;20529;-68
2023/06/25 09:58:10;;;;;;;8.87;7.07;;;25.20;99.90;;;;;;5074898;28;20464;-68
2023/06/25 10:00:39;;;;;;;7.43;6.73;;;24.80;99.90;;;;;;5074375;28;20919;-68
2023/06/25 10:03:06;;;;;;;9.00;6.97;;;24.80;99.90;;;;;;5074073;28;20458;-69
2023/06/25 10:05:34;;;;;;;7.83;6.37;;;24.90;99.90;;;;;;5074355;28;20458;-68
2023/06/25 10:08:01;;;;;;;7.23;6.33;;;25.10;99.90;;;;;;5074395;28;20489;-69
2023/06/25 10:10:29;;;;;;;11.60;7.10;;;25.20;99.90;;;;;;5074702;28;20840;-68
2023/06/25 10:12:57;;;;;;;6.07;5.47;;;25.30;99.90;;;;;;5074347;28;20458;-67
2023/06/25 10:15:29;;;;;;;5.80;4.80;;;25.30;99.90;;;;;;5073739;28;20476;-68
2023/06/25 10:17:58;;;;;;;6.37;5.23;;;25.40;99.90;;;;;;5074540;28;20450;-68
2023/06/25 10:20:30;;;;;;;6.00;5.50;;;25.50;99.90;;;;;;5074180;28;20784;-68
2023/06/25 10:23:06;;;;;;;7.90;5.30;;;25.40;99.90;;;;;;5074579;28;20454;-67
2023/06/25 10:25:34;;;;;;;11.70;10.50;;;25.40;99.90;;;;;;5074423;28;20438;-67
2023/06/25 10:28:14;;;;;;;6.60;6.00;;;25.40;99.90;;;;;;5073631;28;21025;-68
2023/06/25 10:30:46;;;;;;;7.30;5.37;;;25.50;99.90;;;;;;5074673;28;20478;-68
2023/06/25 10:33:15;;;;;;;6.43;5.83;;;25.50;99.90;;;;;;5074882;28;20448;-69
2023/06/25 10:35:43;;;;;;;7.67;5.20;;;25.60;99.90;;;;;;5074736;28;20819;-68
2023/06/25 10:38:10;;;;;;;6.07;5.57;;;25.60;99.90;;;;;;5073896;28;20535;-68
2023/06/25 10:40:38;;;;;;;7.17;5.43;;;25.50;99.90;;;;;;5074182;28;20556;-68
2023/06/25 10:43:05;;;;;;;6.70;6.10;;;25.40;99.90;;;;;;5074012;28;20458;-67
2023/06/25 10:45:34;;;;;;;5.27;4.73;;;25.40;99.90;;;;;;5073666;28;20454;-67
2023/06/25 10:48:06;;;;;;;6.57;5.90;;;25.40;99.90;;;;;;5074072;28;20488;-67
2023/06/25 10:50:33;;;;;;;9.43;8.53;;;25.40;99.90;;;;;;5073670;28;20458;-67
2023/06/25 10:53:01;;;;;;;7.23;5.70;;;25.40;99.90;;;;;;5073649;28;20835;-67
2023/06/25 10:55:28;;;;;;;6.57;5.33;;;25.50;99.90;;;;;;5073826;28;20545;-69
2023/06/25 10:57:55;;;;;;;8.00;5.37;;;25.70;99.90;;;;;;5073846;28;20450;-68
2023/06/25 11:00:24;;;;;;;6.27;5.40;;;26.00;99.90;;;;;;5073648;28;20462;-68
2023/06/25 11:02:55;;;;;;;6.53;5.87;;;26.10;99.90;;;;;;5073774;28;20454;-69
2023/06/25 11:05:33;;;;;;;9.87;6.30;;;26.20;99.90;;;;;;5073823;28;20792;-68
2023/06/25 11:08:00;;;;;;;6.23;5.63;;;26.20;99.90;;;;;;5073755;28;20950;-68
2023/06/25 11:10:27;;;;;;;7.80;7.00;;;26.20;99.90;;;;;;5073365;28;20461;-67
2023/06/25 11:12:58;;;;;;;8.73;7.17;;;26.40;99.90;;;;;;5073213;28;20461;-68
2023/06/25 11:15:24;;;;;;;8.33;7.53;;;26.50;99.90;;;;;;5073426;28;20907;-68
2023/06/25 11:17:52;;;;;;;8.53;6.07;;;26.60;99.90;;;;;;5073543;28;20545;-68
2023/06/25 11:20:23;;;;;;;6.50;5.77;;;26.70;99.90;;;;;;5073737;28;20454;-68
2023/06/25 11:22:50;;;;;;;6.37;5.80;;;26.80;99.90;;;;;;5073694;28;20456;-68
2023/06/25 11:25:17;;;;;;;10.30;5.80;;;26.90;99.90;;;;;;5073931;28;20454;-68
2023/06/25 11:27:44;;;;;;;5.93;5.30;;;27.10;99.90;;;;;;5075608;28;20484;-68
2023/06/25 11:30:11;;;;;;;6.53;5.40;;;27.10;99.90;;;;;;5076899;28;20489;-68
2023/06/25 11:32:41;;;;;;;7.33;6.63;;;27.20;99.90;;;;;;5077252;28;20468;-68
2023/06/25 11:35:12;;;;;;;7.20;5.77;;;27.20;99.90;;;;;;5076838;28;20450;-68
2023/06/25 11:37:48;;;;;;;6.00;5.50;;;27.20;99.90;;;;;;5076804;28;20569;-68
2023/06/25 11:40:25;;;;;;;6.10;5.40;;;27.30;99.90;;;;;;5076988;28;20484;-68
2023/06/25 11:42:52;;;;;;;7.23;6.63;;;27.30;99.90;;;;;;5077164;28;20768;-68
2023/06/25 11:45:20;;;;;;;6.10;5.60;;;27.30;99.90;;;;;;5077262;28;20482;-68
2023/06/25 11:47:50;;;;;;;5.27;4.87;;;27.30;99.90;;;;;;5076963;28;20492;-68
2023/06/25 11:50:17;;;;;;;5.20;4.80;;;27.20;99.90;;;;;;5076946;28;20462;-68
2023/06/25 11:52:46;;;;;;;7.80;7.07;;;27.20;99.90;;;;;;5077168;28;20793;-68
2023/06/25 11:55:13;;;;;;;7.77;5.70;;;27.20;99.90;;;;;;5077014;28;20783;-68
2023/06/25 11:57:40;;;;;;;6.30;5.80;;;27.40;99.90;;;;;;5077544;28;20562;-69
2023/06/25 12:00:08;;;;;;;6.77;6.00;;;27.50;99.90;;;;;;5076530;28;20462;-68
2023/06/25 12:02:38;;;;;;;6.60;6.00;;;27.80;99.90;;;;;;5076733;28;20481;-68
2023/06/25 12:05:06;;;;;;;12.87;11.67;;;27.90;99.90;;;;;;5076639;28;20892;-68
2023/06/25 12:07:33;;;;;;;7.63;5.83;;;28.20;99.90;;;;;;5077076;28;20458;-68
2023/06/25 12:10:01;;;;;;;7.90;5.70;;;28.30;99.90;;;;;;5076631;28;20486;-68
2023/06/25 12:12:28;;;;;;;7.50;6.47;;;28.30;99.90;;;;;;5076659;28;20536;-68
2023/06/25 12:14:55;;;;;;;6.10;5.50;;;28.20;99.90;;;;;;5076198;28;20454;-68
2023/06/25 12:17:22;;;;;;;8.90;5.73;;;28.00;99.90;;;;;;5076118;28;20537;-68
2023/06/25 12:19:52;;;;;;;5.80;5.30;;;27.90;99.90;;;;;;5076062;28;20563;-68
2023/06/25 12:22:18;;;;;;;5.87;5.37;;;27.70;99.90;;;;;;5076340;28;20468;-68
2023/06/25 12:24:45;;;;;;;6.00;5.40;;;27.40;99.90;;;;;;5075799;28;21009;-67
2023/06/25 12:27:14;;;;;;;5.30;4.90;;;27.10;99.90;;;;;;5076229;28;20458;-67
2023/06/25 12:29:40;;;;;;;6.43;5.83;;;26.60;99.90;;;;;;5075981;28;20493;-67
2023/06/25 12:32:08;;;;;;;5.43;4.93;;;26.40;99.90;;;;;;5075616;28;20494;-68
2023/06/25 12:34:36;;;;;;;6.10;5.50;;;26.30;99.90;;;;;;5076036;28;20540;-67
2023/06/25 12:37:03;;;;;;;6.30;4.97;;;26.30;99.90;;;;;;5075767;28;20505;-66
2023/06/25 12:39:30;;;;;;;5.53;5.07;;;26.20;99.90;;;;;;5075406;28;20451;-68
2023/06/25 12:41:57;;;;;;;7.37;5.27;;;26.20;99.90;;;;;;5076286;28;20450;-67
2023/06/25 12:44:26;;;;;;;5.83;5.23;;;26.10;99.90;;;;;;5076151;28;20613;-67